createdAt,value
2023-03-23T16:00:00.611Z,14.61
2023-03-23T16:02:17.624Z,14.63
2023-03-23T16:04:34.554Z,14.56
2023-03-23T16:06:51.489Z,14.50
2023-03-23T16:09:09.499Z,14.49
2023-03-23T16:11:26.648Z,14.50
2023-03-23T16:13:43.879Z,14.56
2023-03-23T16:16:00.841Z,14.56
2023-03-23T16:18:17.841Z,14.54
2023-03-23T16:20:34.772Z,14.56
2023-03-23T16:22:52.062Z,14.51
2023-03-23T16:25:09.407Z,14.47
2023-03-23T16:27:26.749Z,14.42
2023-03-23T16:30:02.211Z,14.37
2023-03-23T16:32:21.004Z,14.33
2023-03-23T16:34:38.199Z,14.32
2023-03-23T16:36:55.241Z,14.33
2023-03-23T16:39:12.589Z,14.28
2023-03-23T16:41:29.698Z,14.26
2023-03-23T16:43:47.017Z,14.22
2023-03-23T16:46:03.999Z,14.19
2023-03-23T16:48:21.293Z,14.22
2023-03-23T16:50:38.195Z,14.17
2023-03-23T16:52:55.115Z,14.15
2023-03-23T16:55:12.201Z,14.09
2023-03-23T16:57:29.533Z,14.07
2023-03-23T16:59:46.550Z,13.99
2023-03-23T17:02:03.748Z,13.99
2023-03-23T17:04:20.852Z,14.01
2023-03-23T17:06:38.812Z,13.92
2023-03-23T17:08:55.759Z,13.87
2023-03-23T17:11:12.914Z,13.81
2023-03-23T17:13:30.162Z,13.76
2023-03-23T17:15:47.641Z,13.73
2023-03-23T17:18:04.776Z,13.68
2023-03-23T17:20:22.072Z,13.59
2023-03-23T17:22:42.260Z,13.49
2023-03-23T17:24:59.510Z,13.46
2023-03-23T17:27:16.466Z,13.44
2023-03-23T17:29:34.632Z,13.37
2023-03-23T17:31:51.949Z,13.34
2023-03-23T17:34:11.766Z,13.29
2023-03-23T17:36:28.860Z,13.25
2023-03-23T17:38:45.773Z,13.18
2023-03-23T17:41:02.708Z,13.14
2023-03-23T17:43:20.001Z,13.10
2023-03-23T17:45:36.885Z,13.09
2023-03-23T17:47:53.960Z,13.06
2023-03-23T17:50:12.744Z,13.01
2023-03-23T17:52:29.936Z,12.99
2023-03-23T17:54:46.915Z,12.95
2023-03-23T17:57:05.031Z,12.87
2023-03-23T17:59:21.978Z,12.82
2023-03-23T18:01:39.015Z,12.77
2023-03-23T18:03:56.307Z,12.69
2023-03-23T18:06:13.385Z,12.70
2023-03-23T18:08:30.346Z,12.66
2023-03-23T18:10:47.306Z,12.62
2023-03-23T18:13:04.535Z,12.59
2023-03-23T18:15:21.538Z,12.57
2023-03-23T18:17:45.350Z,12.54
2023-03-23T18:20:02.478Z,12.55
2023-03-23T18:22:19.492Z,12.53
2023-03-23T18:24:37.259Z,12.52
2023-03-23T18:26:54.352Z,12.50
2023-03-23T18:29:11.457Z,12.49
2023-03-23T18:31:28.796Z,12.45
2023-03-23T18:33:45.785Z,12.42
2023-03-23T18:36:04.138Z,12.40
2023-03-23T18:38:21.237Z,12.35
2023-03-23T18:40:38.199Z,12.27
2023-03-23T18:42:55.549Z,12.19
2023-03-23T18:45:12.492Z,12.11
2023-03-23T18:47:29.461Z,12.04
2023-03-23T18:49:47.497Z,12.03
2023-03-23T18:52:04.801Z,11.98
2023-03-23T18:54:22.135Z,11.89
2023-03-23T18:56:39.277Z,11.89
2023-03-23T18:58:56.238Z,11.89
2023-03-23T19:01:13.397Z,11.87
2023-03-23T19:03:30.444Z,11.87
2023-03-23T19:05:47.366Z,11.88
2023-03-23T19:08:04.425Z,11.89
2023-03-23T19:10:21.270Z,11.88
2023-03-23T19:12:38.263Z,11.88
2023-03-23T19:14:55.545Z,11.88
2023-03-23T19:17:12.619Z,11.92
2023-03-23T19:19:30.008Z,11.94
2023-03-23T19:21:47.897Z,11.94
2023-03-23T19:24:04.898Z,11.92
2023-03-23T19:26:22.254Z,11.90
2023-03-23T19:30:59.209Z,11.91
2023-03-23T19:33:16.184Z,11.92
2023-03-23T19:35:33.496Z,11.92
2023-03-23T19:37:50.440Z,11.90
2023-03-23T19:40:20.941Z,11.90
2023-03-23T19:42:44.411Z,11.93
2023-03-23T19:45:01.390Z,11.94
2023-03-23T19:47:18.462Z,11.93
2023-03-23T19:49:35.475Z,11.91
2023-03-23T19:52:09.005Z,11.95
2023-03-23T19:54:27.323Z,11.96
2023-03-23T19:56:44.382Z,11.97
2023-03-23T19:59:01.590Z,11.99
2023-03-23T20:01:18.740Z,12.00
2023-03-23T20:03:35.812Z,11.99
2023-03-23T20:05:52.787Z,11.99
2023-03-23T20:08:09.750Z,11.99
2023-03-23T20:10:26.760Z,12.00
2023-03-23T20:12:44.024Z,12.01
2023-03-23T20:15:00.990Z,12.01
2023-03-23T20:17:18.003Z,11.99
2023-03-23T20:19:36.543Z,11.99
2023-03-23T20:21:54.009Z,11.96
2023-03-23T20:24:11.237Z,11.91
2023-03-23T20:26:28.279Z,11.87
2023-03-23T20:28:45.775Z,11.87
2023-03-23T20:31:21.009Z,11.89
2023-03-23T20:33:40.714Z,11.82
2023-03-23T20:35:58.018Z,11.79
2023-03-23T20:38:14.973Z,11.78
2023-03-23T20:40:31.849Z,11.81
2023-03-23T20:42:48.931Z,11.82
2023-03-23T20:45:05.869Z,11.80
2023-03-23T20:47:23.002Z,11.76
2023-03-23T20:49:40.344Z,11.75
2023-03-23T20:51:57.661Z,11.82
2023-03-23T20:54:14.553Z,11.85
2023-03-23T20:56:31.625Z,11.87
2023-03-23T20:58:48.540Z,11.86
2023-03-23T21:01:05.540Z,11.87
2023-03-23T21:03:22.425Z,11.87
2023-03-23T21:05:39.527Z,11.86
2023-03-23T21:07:56.864Z,11.84
2023-03-23T21:10:13.897Z,11.83
2023-03-23T21:12:31.032Z,11.85
2023-03-23T21:14:47.975Z,11.82
2023-03-23T21:17:04.920Z,11.79
2023-03-23T21:19:22.276Z,11.76
2023-03-23T21:21:39.843Z,11.75
2023-03-23T21:24:13.135Z,11.76
2023-03-23T21:26:30.429Z,11.74
2023-03-23T21:28:47.644Z,11.76
2023-03-23T21:31:04.871Z,11.77
2023-03-23T21:33:21.804Z,11.82
2023-03-23T21:35:39.140Z,11.85
2023-03-23T21:37:56.522Z,11.91
2023-03-23T21:40:14.460Z,11.97
2023-03-23T21:42:31.822Z,12.01
2023-03-23T21:44:49.129Z,12.03
2023-03-23T21:47:06.064Z,12.07
2023-03-23T21:49:23.003Z,12.10
2023-03-23T21:51:40.430Z,12.08
2023-03-23T21:53:57.756Z,12.06
2023-03-23T21:56:15.800Z,12.08
2023-03-23T21:58:33.007Z,12.08
2023-03-23T22:00:50.305Z,12.09
2023-03-23T22:03:07.514Z,12.14
2023-03-23T22:05:24.482Z,12.13
2023-03-23T22:07:41.377Z,12.14
2023-03-23T22:09:58.732Z,12.11
2023-03-23T22:12:15.810Z,12.11
2023-03-23T22:14:33.002Z,12.10
2023-03-23T22:16:50.057Z,12.10
2023-03-23T22:19:07.304Z,12.08
2023-03-23T22:21:25.342Z,12.03
2023-03-23T22:23:42.400Z,11.99
2023-03-23T22:25:59.406Z,12.01
2023-03-23T22:28:16.374Z,11.99
2023-03-23T22:30:33.309Z,11.93
2023-03-23T22:32:50.437Z,11.91
2023-03-23T22:35:07.514Z,11.92
2023-03-23T22:37:24.714Z,11.91
2023-03-23T22:39:41.974Z,11.89
2023-03-23T22:41:59.193Z,11.81
2023-03-23T22:44:16.150Z,11.80
2023-03-23T22:46:33.506Z,11.77
2023-03-23T22:48:50.838Z,11.79
2023-03-23T22:51:07.736Z,11.76
2023-03-23T22:53:24.720Z,11.75
2023-03-23T22:55:41.918Z,11.75
2023-03-23T22:57:58.993Z,11.74
2023-03-23T23:00:16.075Z,11.71
2023-03-23T23:02:33.064Z,11.67
2023-03-23T23:04:50.042Z,11.64
2023-03-23T23:07:12.800Z,11.64
2023-03-23T23:09:30.604Z,11.64
2023-03-23T23:11:47.550Z,11.65
2023-03-23T23:14:04.733Z,11.65
2023-03-23T23:16:21.752Z,11.65
2023-03-23T23:18:39.059Z,11.64
2023-03-23T23:20:55.983Z,11.64
2023-03-23T23:23:12.946Z,11.64
2023-03-23T23:25:30.242Z,11.66
2023-03-23T23:27:47.358Z,11.66
2023-03-23T23:30:04.693Z,11.60
2023-03-23T23:32:21.793Z,11.59
2023-03-23T23:34:39.060Z,11.58
2023-03-23T23:36:56.472Z,11.58
2023-03-23T23:39:13.722Z,11.60
2023-03-23T23:41:30.655Z,11.57
2023-03-23T23:43:47.621Z,11.57
2023-03-23T23:46:04.908Z,11.55
2023-03-23T23:48:22.795Z,11.53
2023-03-23T23:50:40.092Z,11.49
2023-03-23T23:52:57.066Z,11.41
2023-03-23T23:55:15.268Z,11.34
2023-03-23T23:57:32.343Z,11.25
2023-03-23T23:59:49.679Z,11.21
